Time;durP1;ratioP1;P1;durP2;ratioP2;P2;SDS_P1;SDS_P2;PMS_P1;PMS_P2;Temp;Humidity;BMP_temperature;BMP_pressure;BME280_temperature;BME280_humidity;BME280_pressure;Samples;Min_cycle;Max_cycle;Signal;HPM_P1;HPM_P2
2021/06/25 00:02:06;;;;;;;4.83;2.93;;;;;;;17.42;100.00;101285.69;5096820;28;20929;-72
2021/06/25 00:04:32;;;;;;;3.17;2.07;;;;;;;17.48;100.00;101281.63;5096862;28;20440;-72
2021/06/25 00:07:00;;;;;;;3.17;2.10;;;;;;;17.49;100.00;101275.03;5097133;28;20444;-72
2021/06/25 00:09:27;;;;;;;3.37;2.27;;;;;;;17.46;100.00;101267.47;5097013;28;20440;-72
2021/06/25 00:11:54;;;;;;;5.00;2.33;;;;;;;17.41;100.00;101273.13;5096667;28;20472;-72
2021/06/25 00:14:22;;;;;;;2.20;1.60;;;;;;;17.46;100.00;101269.41;5096842;28;20480;-72
2021/06/25 00:16:49;;;;;;;3.70;2.23;;;;;;;17.47;100.00;101271.00;5096914;28;20471;-72
2021/06/25 00:19:16;;;;;;;3.20;1.90;;;;;;;17.51;100.00;101261.00;5096858;28;20455;-72
2021/06/25 00:21:42;;;;;;;3.00;2.00;;;;;;;17.51;100.00;101250.81;5096788;28;20460;-72
2021/06/25 00:24:09;;;;;;;2.00;1.80;;;;;;;17.54;100.00;101246.63;5096814;28;20452;-72
2021/06/25 00:26:36;;;;;;;1.93;1.67;;;;;;;17.53;100.00;101255.97;5096734;28;20447;-72
2021/06/25 00:29:04;;;;;;;2.80;2.07;;;;;;;17.53;100.00;101251.31;5096729;28;20448;-73
2021/06/25 00:31:30;;;;;;;2.07;1.57;;;;;;;17.49;100.00;101250.38;5096547;28;20467;-72
2021/06/25 00:33:58;;;;;;;2.43;1.83;;;;;;;17.45;100.00;101238.47;5096563;28;20486;-72
2021/06/25 00:36:24;;;;;;;1.60;1.40;;;;;;;17.45;100.00;101238.47;5096192;28;20440;-73
2021/06/25 00:38:51;;;;;;;2.57;2.10;;;;;;;17.46;100.00;101234.59;5096527;28;20447;-73
2021/06/25 00:41:17;;;;;;;3.20;2.13;;;;;;;17.50;100.00;101242.94;5096339;28;20463;-73
2021/06/25 00:43:45;;;;;;;2.23;2.03;;;;;;;17.55;100.00;101248.22;5096458;28;20447;-73
2021/06/25 00:46:11;;;;;;;4.20;2.43;;;;;;;17.57;100.00;101248.69;5103053;28;20444;-73
2021/06/25 00:48:38;;;;;;;2.93;1.80;;;;;;;17.57;100.00;101240.47;5096310;28;20448;-73
2021/06/25 00:51:05;;;;;;;2.20;1.80;;;;;;;17.61;100.00;101235.94;5096220;28;20456;-73
2021/06/25 00:53:32;;;;;;;3.93;1.90;;;;;;;17.60;100.00;101240.63;5096186;28;20436;-72
2021/06/25 00:55:58;;;;;;;2.83;2.53;;;;;;;17.59;100.00;101235.47;5096140;28;20515;-72
2021/06/25 00:58:24;;;;;;;2.30;1.80;;;;;;;17.54;100.00;101232.94;5096078;28;20448;-72
2021/06/25 01:00:52;;;;;;;1.93;1.70;;;;;;;17.48;100.00;101234.25;5095690;28;20941;-72
2021/06/25 01:03:19;;;;;;;2.67;1.67;;;;;;;17.49;100.00;101233.13;5095798;28;20468;-72
2021/06/25 01:05:45;;;;;;;2.33;2.13;;;;;;;17.42;100.00;101238.31;5095939;28;20433;-72
2021/06/25 01:08:12;;;;;;;2.57;2.37;;;;;;;17.50;100.00;101241.00;5095870;28;20443;-72
2021/06/25 01:10:41;;;;;;;2.10;1.70;;;;;;;17.53;100.00;101240.34;5095697;28;20448;-71
2021/06/25 01:13:08;;;;;;;2.23;2.03;;;;;;;17.56;100.00;101236.13;5095846;28;20468;-71
2021/06/25 01:15:35;;;;;;;2.77;1.90;;;;;;;17.52;100.00;101230.50;5095407;28;21049;-71
2021/06/25 01:18:04;;;;;;;3.20;2.20;;;;;;;17.46;100.00;101218.16;5095787;28;20446;-71
2021/06/25 01:20:32;;;;;;;2.00;1.80;;;;;;;17.32;100.00;101223.09;5095674;28;20441;-71
2021/06/25 01:23:00;;;;;;;2.30;1.70;;;;;;;17.31;100.00;101222.28;5095563;28;20460;-71
2021/06/25 01:25:28;;;;;;;3.20;2.13;;;;;;;17.28;100.00;101225.66;5095549;28;20448;-71
2021/06/25 01:27:58;;;;;;;3.13;1.67;;;;;;;17.29;100.00;101210.84;5095557;28;20448;-71
2021/06/25 01:30:26;;;;;;;1.50;1.40;;;;;;;17.27;100.00;101220.53;5095474;28;20444;-71
2021/06/25 01:32:54;;;;;;;1.90;1.40;;;;;;;17.26;100.00;101214.22;5095380;28;20483;-71
2021/06/25 01:35:21;;;;;;;2.57;1.93;;;;;;;17.31;100.00;101210.50;5095281;28;20483;-72
2021/06/25 01:37:47;;;;;;;3.00;2.07;;;;;;;17.34;100.00;101210.66;5095218;28;20444;-71
2021/06/25 01:40:18;;;;;;;3.47;2.13;;;;;;;17.34;100.00;101202.44;5095322;28;20451;-71
2021/06/25 01:42:46;;;;;;;3.77;2.23;;;;;;;17.30;100.00;101197.94;5095607;28;20464;-71
2021/06/25 01:45:15;;;;;;;2.57;2.00;;;;;;;17.26;100.00;101205.22;5095181;28;20440;-71
2021/06/25 01:47:43;;;;;;;4.13;1.53;;;;;;;17.32;100.00;101195.69;5095195;28;20445;-71
2021/06/25 01:50:12;;;;;;;3.03;2.30;;;;;;;17.35;100.00;101201.31;5095106;28;20444;-71
2021/06/25 01:52:43;;;;;;;2.00;1.80;;;;;;;17.32;100.00;101195.69;5094982;28;20460;-71
2021/06/25 01:55:11;;;;;;;2.10;1.70;;;;;;;17.28;100.00;101192.00;5094989;28;20517;-72
2021/06/25 01:57:39;;;;;;;2.73;1.90;;;;;;;17.26;100.00;101186.84;5095014;28;20449;-72
2021/06/25 02:00:06;;;;;;;2.40;1.97;;;;;;;17.20;100.00;101198.34;5094970;28;20445;-72
2021/06/25 02:02:34;;;;;;;3.00;2.10;;;;;;;17.22;100.00;101187.84;5094798;28;20460;-72
2021/06/25 02:05:00;;;;;;;3.47;2.27;;;;;;;17.22;100.00;101180.47;5094851;28;20465;-71
2021/06/25 02:07:27;;;;;;;4.60;2.27;;;;;;;17.19;100.00;101178.38;5094791;28;20441;-71
2021/06/25 02:09:55;;;;;;;2.83;2.30;;;;;;;17.18;100.00;101171.31;5094768;28;20816;-71
2021/06/25 02:12:21;;;;;;;2.00;1.83;;;;;;;17.16;100.00;101168.06;5094225;28;20525;-72
2021/06/25 02:14:49;;;;;;;2.13;1.63;;;;;;;17.10;100.00;101167.47;5093992;28;20480;-72
2021/06/25 02:17:16;;;;;;;2.40;2.20;;;;;;;16.99;100.00;101177.19;5094579;28;20444;-71
2021/06/25 02:19:42;;;;;;;2.10;1.73;;;;;;;16.94;100.00;101171.09;5094668;28;20872;-71
2021/06/25 02:22:09;;;;;;;3.43;2.50;;;;;;;16.93;100.00;101174.97;5094577;28;20461;-71
2021/06/25 02:24:35;;;;;;;2.40;1.63;;;;;;;16.96;100.00;101177.84;5094469;28;20432;-71
2021/06/25 02:27:02;;;;;;;2.17;1.70;;;;;;;16.99;100.00;101170.91;5094444;28;20451;-72
2021/06/25 02:29:29;;;;;;;3.17;2.10;;;;;;;16.89;100.00;101167.41;5094034;28;20991;-72
2021/06/25 02:31:56;;;;;;;2.20;1.63;;;;;;;16.79;100.00;101165.03;5093975;28;20838;-71
2021/06/25 02:34:23;;;;;;;3.00;2.43;;;;;;;16.77;100.00;101170.03;5093866;28;20447;-72
2021/06/25 02:36:49;;;;;;;2.73;2.37;;;;;;;16.80;100.00;101174.84;5094238;28;20448;-71
2021/06/25 02:39:16;;;;;;;3.30;2.00;;;;;;;16.91;100.00;101172.56;5093850;28;20441;-72
2021/06/25 02:41:43;;;;;;;2.23;1.53;;;;;;;16.98;100.00;101180.25;5098957;28;20436;-72
2021/06/25 02:44:10;;;;;;;3.07;2.43;;;;;;;16.96;100.00;101172.38;5096389;28;20429;-72
2021/06/25 02:46:36;;;;;;;3.10;1.90;;;;;;;16.95;100.00;101173.50;5093790;28;20806;-72
2021/06/25 02:49:05;;;;;;;4.07;2.07;;;;;;;16.90;100.00;101174.47;5093724;28;20440;-72
2021/06/25 02:51:31;;;;;;;2.80;2.00;;;;;;;16.89;100.00;101156.47;5093890;28;20479;-72
2021/06/25 02:53:58;;;;;;;2.90;2.00;;;;;;;16.87;100.00;101156.00;5093936;28;20441;-72
2021/06/25 02:56:24;;;;;;;1.90;1.60;;;;;;;16.82;100.00;101164.41;5093804;28;20480;-72
2021/06/25 02:58:51;;;;;;;5.83;1.80;;;;;;;16.89;100.00;101155.66;5093861;28;20440;-72
2021/06/25 03:01:17;;;;;;;3.20;2.53;;;;;;;16.86;100.00;101157.09;5093682;28;20475;-72
2021/06/25 03:03:44;;;;;;;3.03;2.27;;;;;;;16.84;100.00;101164.06;5093502;28;20957;-71
2021/06/25 03:06:11;;;;;;;2.33;2.00;;;;;;;16.83;100.00;101163.25;5093738;28;20443;-71
2021/06/25 03:08:38;;;;;;;3.00;2.10;;;;;;;16.87;100.00;101175.16;5093751;28;20448;-71
2021/06/25 03:11:04;;;;;;;2.40;1.93;;;;;;;16.84;100.00;101167.59;5093428;28;20555;-72
2021/06/25 03:13:31;;;;;;;2.60;2.00;;;;;;;16.85;100.00;101168.41;5093645;28;20432;-71
2021/06/25 03:15:57;;;;;;;2.70;2.37;;;;;;;16.87;100.00;101166.16;5093218;28;20477;-71
2021/06/25 03:18:24;;;;;;;1.73;1.63;;;;;;;16.88;100.00;101165.00;5093524;28;20440;-72
2021/06/25 03:20:50;;;;;;;6.20;2.57;;;;;;;16.88;100.00;101154.06;5093483;28;20463;-71
2021/06/25 03:23:18;;;;;;;3.47;2.40;;;;;;;16.91;100.00;101147.94;5093477;28;20441;-71
2021/06/25 03:25:45;;;;;;;4.50;2.50;;;;;;;16.95;100.00;101159.00;5092516;28;20432;-71
2021/06/25 03:28:11;;;;;;;3.10;2.37;;;;;;;16.95;100.00;101164.47;5093399;28;20432;-71
2021/06/25 03:30:38;;;;;;;3.10;2.17;;;;;;;16.99;100.00;101170.91;5093380;28;20447;-71
2021/06/25 03:33:05;;;;;;;3.13;2.20;;;;;;;17.02;100.00;101171.06;5093328;28;20460;-71
2021/06/25 03:35:32;;;;;;;5.50;2.07;;;;;;;17.11;100.00;101173.75;5093267;28;20487;-71
2021/06/25 03:37:58;;;;;;;3.83;2.80;;;;;;;17.15;100.00;101172.75;5093309;28;20448;-71
2021/06/25 03:40:31;;;;;;;2.93;2.07;;;;;;;17.15;100.00;101180.16;5093254;28;20436;-71
2021/06/25 03:42:57;;;;;;;2.27;2.03;;;;;;;17.15;100.00;101170.00;5093261;28;20869;-71
2021/06/25 03:45:24;;;;;;;2.70;1.93;;;;;;;17.14;100.00;101173.09;5093246;28;20433;-72
2021/06/25 03:47:51;;;;;;;2.30;1.83;;;;;;;17.23;100.00;101173.03;5093221;28;20447;-72
2021/06/25 03:50:17;;;;;;;3.20;1.80;;;;;;;17.26;100.00;101178.63;5093226;28;20479;-71
2021/06/25 03:52:44;;;;;;;4.00;3.30;;;;;;;17.29;100.00;101179.91;5093112;28;20465;-71
2021/06/25 03:55:11;;;;;;;3.57;2.57;;;;;;;17.33;100.00;101189.88;5092861;28;20476;-70
2021/06/25 03:57:39;;;;;;;2.20;1.77;;;;;;;17.33;100.00;101180.88;5092850;28;20429;-73
2021/06/25 04:00:09;;;;;;;3.13;2.20;;;;;;;17.34;100.00;101177.78;5094505;28;20445;-73
2021/06/25 04:02:36;;;;;;;4.80;2.47;;;;;;;17.35;100.00;101173.09;5093007;28;20472;-72
2021/06/25 04:05:03;;;;;;;4.70;2.67;;;;;;;17.33;100.00;101176.19;5093091;28;20443;-73
2021/06/25 04:07:30;;;;;;;2.73;2.10;;;;;;;17.36;100.00;101181.00;5093124;28;20584;-73
2021/06/25 04:09:56;;;;;;;4.23;2.53;;;;;;;17.39;100.00;101191.28;5093020;28;20440;-73
2021/06/25 04:12:23;;;;;;;3.30;2.10;;;;;;;17.44;100.00;101192.22;5092616;28;20472;-73
2021/06/25 04:14:50;;;;;;;3.07;2.30;;;;;;;17.45;100.00;101199.31;5093142;28;20795;-73
2021/06/25 04:17:17;;;;;;;3.00;2.33;;;;;;;17.48;100.00;101198.63;5092940;28;20471;-73
2021/06/25 04:19:43;;;;;;;2.23;1.70;;;;;;;17.58;100.00;101181.84;5092999;28;20799;-73
2021/06/25 04:22:10;;;;;;;4.63;3.33;;;;;;;17.62;100.00;101189.03;5092551;28;20985;-73
2021/06/25 04:24:36;;;;;;;3.20;2.87;;;;;;;17.71;100.00;101194.47;5092939;28;20456;-73
2021/06/25 04:27:03;;;;;;;3.20;2.63;;;;;;;17.79;100.00;101199.06;5092561;28;20433;-73
2021/06/25 04:29:30;;;;;;;3.50;2.53;;;;;;;17.85;100.00;101197.75;5092876;28;20440;-73
2021/06/25 04:31:58;;;;;;;3.30;2.40;;;;;;;17.93;100.00;101208.97;5092845;28;20556;-73
2021/06/25 04:34:24;;;;;;;3.00;2.70;;;;;;;17.96;100.00;101208.31;5092813;28;20444;-73
2021/06/25 04:36:50;;;;;;;3.87;3.10;;;;;;;18.00;100.00;101209.25;5093840;28;20487;-72
2021/06/25 04:39:17;;;;;;;2.53;2.10;;;;;;;18.05;100.00;101214.50;5103197;28;20444;-73
2021/06/25 04:41:43;;;;;;;5.40;4.17;;;;;;;18.09;100.00;101213.50;5096744;28;20843;-73
2021/06/25 04:44:11;;;;;;;6.80;3.90;;;;;;;18.06;100.00;101208.72;5096073;28;20812;-73
2021/06/25 04:46:38;;;;;;;5.77;3.63;;;;;;;18.08;100.00;101217.38;5096343;28;20433;-72
2021/06/25 04:49:06;;;;;;;6.60;3.90;;;;;;;18.12;100.00;101206.56;5096311;28;20444;-72
2021/06/25 04:51:32;;;;;;;5.20;2.90;;;;;;;18.14;100.00;101209.75;5095854;28;20467;-73
2021/06/25 04:53:59;;;;;;;3.57;2.90;;;;;;;18.16;100.00;101207.50;5095936;28;20805;-72
2021/06/25 04:56:25;;;;;;;5.20;3.00;;;;;;;18.18;100.00;101207.94;5096084;28;20476;-73
2021/06/25 04:58:52;;;;;;;4.00;3.30;;;;;;;18.14;100.00;101204.25;5096187;28;20448;-73
2021/06/25 05:01:18;;;;;;;3.70;3.00;;;;;;;18.18;100.00;101216.16;5096031;28;20831;-73
2021/06/25 05:03:45;;;;;;;8.80;2.97;;;;;;;18.24;100.00;101209.34;5096056;28;20440;-73
2021/06/25 05:06:12;;;;;;;3.60;2.40;;;;;;;18.32;100.00;101213.13;5095985;28;20444;-73
2021/06/25 05:08:39;;;;;;;5.50;3.30;;;;;;;18.34;100.00;101205.38;5095917;28;20440;-73
2021/06/25 05:11:06;;;;;;;3.87;3.30;;;;;;;18.41;100.00;101214.63;5095608;28;20897;-72
2021/06/25 05:13:33;;;;;;;6.30;3.57;;;;;;;18.48;99.28;101213.31;5095906;28;20451;-72
2021/06/25 05:15:59;;;;;;;7.20;3.57;;;;;;;18.49;97.99;101215.69;5095746;28;20480;-72
2021/06/25 05:18:26;;;;;;;4.73;2.43;;;;;;;18.48;97.63;101205.88;5095391;28;20451;-72
2021/06/25 05:20:53;;;;;;;4.70;3.20;;;;;;;18.52;97.05;101203.25;5095319;28;20790;-72
2021/06/25 05:23:21;;;;;;;4.60;3.27;;;;;;;18.62;97.76;101213.78;5095616;28;20440;-72
2021/06/25 05:25:48;;;;;;;5.37;3.30;;;;;;;18.67;97.97;101208.06;5095654;28;20515;-72
2021/06/25 05:28:15;;;;;;;7.87;3.40;;;;;;;18.73;96.78;101211.44;5095229;28;20957;-72
2021/06/25 05:30:41;;;;;;;7.23;3.27;;;;;;;18.80;96.45;101217.16;5095528;28;20437;-72
2021/06/25 05:33:08;;;;;;;4.77;2.93;;;;;;;18.76;96.09;101219.78;5095478;28;20456;-70
2021/06/25 05:35:35;;;;;;;7.07;3.43;;;;;;;18.82;95.84;101215.69;5095339;28;20487;-71
2021/06/25 05:38:04;;;;;;;5.20;3.73;;;;;;;18.87;95.70;101209.19;5095468;28;20444;-72
2021/06/25 05:40:32;;;;;;;5.80;3.60;;;;;;;18.90;95.89;101214.78;5095510;28;20448;-72
2021/06/25 05:42:58;;;;;;;5.17;3.43;;;;;;;18.98;96.09;101221.28;5095246;28;20456;-72
2021/06/25 05:45:25;;;;;;;6.90;3.47;;;;;;;19.06;95.52;101214.91;5095152;28;20448;-72
2021/06/25 05:47:51;;;;;;;5.93;3.37;;;;;;;19.06;95.25;101214.09;5094512;28;20464;-71
2021/06/25 05:50:19;;;;;;;5.30;2.80;;;;;;;19.10;94.42;101209.53;5094737;28;20511;-72
2021/06/25 05:52:46;;;;;;;6.40;3.10;;;;;;;19.18;94.20;101221.53;5095021;28;20456;-71
2021/06/25 05:55:13;;;;;;;4.53;2.93;;;;;;;19.24;93.52;101217.41;5095011;28;20440;-71
2021/06/25 05:57:42;;;;;;;4.23;3.43;;;;;;;19.30;93.18;101216.84;5094977;28;20480;-72
2021/06/25 06:00:11;;;;;;;3.30;2.60;;;;;;;19.31;91.96;101218.44;5094984;28;20543;-72
2021/06/25 06:02:38;;;;;;;3.70;2.50;;;;;;;19.40;91.82;101221.06;5094811;28;20468;-72
2021/06/25 06:05:05;;;;;;;4.57;2.77;;;;;;;19.40;91.67;101221.88;5094589;28;20444;-71
2021/06/25 06:07:32;;;;;;;3.63;2.97;;;;;;;19.42;92.19;101230.56;5094736;28;20436;-71
2021/06/25 06:09:58;;;;;;;3.47;2.57;;;;;;;19.55;91.07;101227.81;5094804;28;20441;-73
2021/06/25 06:12:25;;;;;;;4.37;2.90;;;;;;;19.63;89.47;101237.91;5094298;28;20485;-72
2021/06/25 06:14:52;;;;;;;4.67;3.10;;;;;;;19.72;89.75;101237.75;5094407;28;20451;-72
2021/06/25 06:17:20;;;;;;;5.30;3.47;;;;;;;19.78;89.14;101236.38;5094467;28;20479;-72
2021/06/25 06:19:52;;;;;;;4.10;2.70;;;;;;;19.85;88.85;101240.13;5094531;28;20444;-72
2021/06/25 06:33:18;;;;;;;3.53;2.40;;;;;;;20.15;85.91;101237.88;5094108;28;20503;-71
2021/06/25 06:35:44;;;;;;;4.60;2.37;;;;;;;20.16;86.12;101235.91;5100299;28;20429;-71
2021/06/25 06:38:11;;;;;;;6.10;3.00;;;;;;;20.16;85.64;101233.16;5095007;28;20531;-71
2021/06/25 06:40:37;;;;;;;8.53;2.83;;;;;;;20.13;84.53;101233.84;5094193;28;20444;-71
2021/06/25 06:43:04;;;;;;;4.17;2.63;;;;;;;20.01;84.47;101240.22;5093897;28;20471;-71
2021/06/25 06:45:31;;;;;;;3.47;3.17;;;;;;;19.93;85.16;101232.09;5093930;28;20436;-70
2021/06/25 06:47:58;;;;;;;3.20;1.93;;;;;;;19.89;87.02;101235.53;5093999;28;20788;-71
2021/06/25 06:50:24;;;;;;;3.20;2.70;;;;;;;19.80;86.15;101242.34;5093647;28;20955;-71
2021/06/25 06:52:51;;;;;;;4.13;2.70;;;;;;;19.62;85.09;101239.06;5093422;28;20467;-71
2021/06/25 06:55:19;;;;;;;4.07;2.90;;;;;;;19.52;85.22;101247.72;5093484;28;20785;-71
2021/06/25 06:57:46;;;;;;;4.30;2.20;;;;;;;19.44;85.15;101245.91;5093380;28;20981;-72
2021/06/25 07:00:14;;;;;;;3.80;2.80;;;;;;;19.39;86.09;101247.75;5093576;28;20447;-72
2021/06/25 07:02:43;;;;;;;3.23;2.67;;;;;;;19.50;86.07;101252.78;5093468;28;20461;-70
2021/06/25 07:05:11;;;;;;;5.57;3.53;;;;;;;19.53;86.04;101249.34;5093792;28;20447;-70
2021/06/25 07:07:38;;;;;;;3.83;2.80;;;;;;;19.54;85.17;101245.44;5093518;28;20988;-70
2021/06/25 07:10:07;;;;;;;3.90;3.10;;;;;;;19.62;83.47;101252.78;5093405;28;20439;-71
2021/06/25 07:12:35;;;;;;;4.60;2.27;;;;;;;19.67;83.74;101247.06;5093146;28;20881;-70
2021/06/25 07:15:01;;;;;;;2.37;2.10;;;;;;;19.67;82.60;101249.81;5093635;28;20490;-71
2021/06/25 07:17:28;;;;;;;8.87;3.20;;;;;;;19.71;80.57;101250.72;5093492;28;20567;-71
2021/06/25 07:19:56;;;;;;;3.07;2.50;;;;;;;19.74;81.18;101249.19;5093555;28;20447;-70
2021/06/25 07:22:24;;;;;;;3.93;2.80;;;;;;;19.75;81.82;101259.06;5093458;28;20518;-71
2021/06/25 07:24:50;;;;;;;5.03;2.67;;;;;;;19.83;81.05;101258.94;5093538;28;20445;-71
2021/06/25 07:27:17;;;;;;;3.70;2.63;;;;;;;19.93;81.18;101263.16;5093105;28;21037;-71
2021/06/25 07:29:43;;;;;;;2.43;1.70;;;;;;;19.99;81.44;101253.50;5093384;28;20440;-71
2021/06/25 07:32:10;;;;;;;5.40;3.20;;;;;;;20.14;81.29;101262.94;5093107;28;20464;-71
2021/06/25 07:34:37;;;;;;;6.47;3.80;;;;;;;20.26;79.57;101259.38;5093056;28;20474;-71
2021/06/25 07:37:05;;;;;;;4.30;3.23;;;;;;;20.36;79.25;101256.09;5093281;28;20483;-71
2021/06/25 07:39:32;;;;;;;5.33;3.00;;;;;;;20.44;79.60;101255.16;5093252;28;20444;-70
2021/06/25 07:41:59;;;;;;;4.40;2.80;;;;;;;20.56;80.44;101255.13;5093184;28;20550;-70
2021/06/25 07:44:25;;;;;;;3.90;2.67;;;;;;;20.51;78.79;101249.88;5093048;28;20448;-71
2021/06/25 07:46:52;;;;;;;5.37;2.70;;;;;;;20.66;78.76;101249.09;5092829;28;20470;-70
2021/06/25 07:49:18;;;;;;;4.70;2.93;;;;;;;20.90;77.36;101256.41;5093055;28;20466;-70
2021/06/25 07:51:45;;;;;;;4.30;2.90;;;;;;;21.06;76.06;101252.84;5093168;28;20548;-71
2021/06/25 07:54:13;;;;;;;4.90;2.97;;;;;;;21.10;72.71;101251.78;5093172;28;20440;-71
2021/06/25 07:56:39;;;;;;;4.73;3.10;;;;;;;21.20;73.37;101258.69;5093055;28;20480;-71
2021/06/25 07:59:06;;;;;;;7.43;3.33;;;;;;;21.28;73.25;101254.97;5093185;28;20439;-71
2021/06/25 08:01:33;;;;;;;10.63;3.13;;;;;;;21.42;73.17;101254.53;5092702;28;21030;-71
2021/06/25 08:03:59;;;;;;;4.80;3.20;;;;;;;21.49;72.12;101253.91;5093084;28;20444;-71
2021/06/25 08:06:27;;;;;;;5.90;3.10;;;;;;;21.49;72.93;101251.16;5093065;28;20440;-71
2021/06/25 08:08:54;;;;;;;4.97;3.20;;;;;;;21.41;72.33;101241.91;5093057;28;20497;-71
2021/06/25 08:11:22;;;;;;;2.60;2.33;;;;;;;21.42;71.94;101244.31;5093016;28;20486;-71
2021/06/25 08:13:48;;;;;;;6.33;3.10;;;;;;;21.58;72.30;101243.47;5097051;28;20826;-71
2021/06/25 08:16:15;;;;;;;4.90;3.17;;;;;;;21.68;70.17;101245.66;5096616;28;20443;-71
2021/06/25 08:18:41;;;;;;;3.47;2.37;;;;;;;21.89;71.10;101243.38;5096968;28;20817;-71
2021/06/25 08:21:08;;;;;;;5.93;3.43;;;;;;;21.95;68.87;101238.38;5096800;28;20471;-71
2021/06/25 08:23:34;;;;;;;4.70;2.87;;;;;;;21.89;68.63;101243.38;5096796;28;20444;-71
2021/06/25 08:26:00;;;;;;;4.37;3.13;;;;;;;21.95;69.08;101240.31;5096780;28;20446;-72
2021/06/25 08:28:28;;;;;;;3.13;2.40;;;;;;;21.88;69.13;101243.75;5096685;28;20440;-71
2021/06/25 08:30:55;;;;;;;3.60;2.40;;;;;;;21.76;68.27;101239.16;5096573;28;20440;-71
2021/06/25 08:33:22;;;;;;;4.13;2.90;;;;;;;21.65;69.55;101238.94;5098858;28;20838;-71
2021/06/25 08:35:49;;;;;;;5.33;3.17;;;;;;;21.69;67.92;101247.25;5100951;28;20968;-72
2021/06/25 08:38:15;;;;;;;4.80;2.87;;;;;;;21.64;68.74;101253.06;5096255;28;20996;-72
2021/06/25 08:40:42;;;;;;;11.03;3.40;;;;;;;21.51;68.44;101246.06;5096522;28;20440;-72
2021/06/25 08:43:08;;;;;;;3.37;2.30;;;;;;;21.54;63.18;101246.16;5096384;28;20460;-72
2021/06/25 08:45:36;;;;;;;3.17;2.10;;;;;;;21.72;61.33;101249.31;5096367;28;20444;-71
2021/06/25 08:48:05;;;;;;;5.53;2.57;;;;;;;21.94;62.44;101258.03;5096335;28;20445;-71
2021/06/25 08:50:39;;;;;;;3.47;2.67;;;;;;;22.20;63.85;101249.94;5096339;28;20475;-72
2021/06/25 08:53:06;;;;;;;5.47;3.97;;;;;;;22.34;64.58;101249.44;5095996;28;20825;-71
2021/06/25 08:55:32;;;;;;;3.87;2.70;;;;;;;22.27;65.68;101243.75;5096154;28;20447;-71
2021/06/25 08:57:59;;;;;;;4.47;3.20;;;;;;;22.37;66.56;101237.66;5095815;28;20858;-71
2021/06/25 09:00:25;;;;;;;4.03;2.87;;;;;;;22.49;65.80;101242.19;5096094;28;20447;-71
2021/06/25 09:02:53;;;;;;;4.13;2.90;;;;;;;22.51;64.25;101242.66;5095965;28;20457;-71
2021/06/25 09:05:28;;;;;;;4.27;3.33;;;;;;;22.59;62.51;101238.88;5095988;28;20445;-71
2021/06/25 09:07:56;;;;;;;5.63;2.23;;;;;;;22.64;63.63;101244.06;5096029;28;20440;-71
2021/06/25 09:10:31;;;;;;;5.90;2.90;;;;;;;22.77;63.61;101239.19;5095491;28;21037;-71
2021/06/25 09:13:02;;;;;;;3.50;2.37;;;;;;;22.65;61.54;101240.94;5095367;28;20849;-71
2021/06/25 09:15:30;;;;;;;4.73;2.90;;;;;;;22.77;64.52;101244.69;5095793;28;20429;-71
2021/06/25 09:17:59;;;;;;;3.63;2.63;;;;;;;22.89;64.89;101245.34;5095487;28;20480;-71
2021/06/25 09:20:34;;;;;;;4.20;3.17;;;;;;;22.86;61.27;101237.75;5095469;28;20455;-71
2021/06/25 09:23:01;;;;;;;3.90;2.33;;;;;;;23.00;62.89;101242.75;5095560;28;20459;-72
2021/06/25 09:25:28;;;;;;;4.80;3.33;;;;;;;23.12;60.35;101236.25;5095231;28;20437;-71
2021/06/25 09:27:57;;;;;;;4.40;2.83;;;;;;;23.10;59.57;101244.09;5095607;28;20815;-71
2021/06/25 09:30:24;;;;;;;6.33;2.80;;;;;;;23.12;60.67;101231.50;5095521;28;20867;-72
2021/06/25 09:32:52;;;;;;;2.87;2.20;;;;;;;23.18;59.59;101231.97;5095147;28;20977;-71
2021/06/25 09:35:21;;;;;;;3.70;2.60;;;;;;;23.32;62.07;101234.16;5095422;28;20448;-72
2021/06/25 09:37:50;;;;;;;3.87;2.60;;;;;;;23.30;58.99;101231.78;5095342;28;20484;-71
2021/06/25 09:40:18;;;;;;;3.27;1.90;;;;;;;23.35;58.85;101230.66;5094937;28;20956;-71
2021/06/25 09:42:46;;;;;;;4.40;2.03;;;;;;;23.40;57.90;101238.63;5094990;28;21032;-73
2021/06/25 09:45:15;;;;;;;2.33;2.13;;;;;;;23.37;60.29;101240.19;5095290;28;20444;-71
2021/06/25 09:47:43;;;;;;;4.67;2.90;;;;;;;23.07;59.70;101234.59;5095031;28;20440;-69
2021/06/25 09:50:13;;;;;;;3.20;2.60;;;;;;;22.95;62.34;101234.78;5094992;28;20440;-71
2021/06/25 09:52:58;;;;;;;3.40;2.70;;;;;;;22.72;61.63;101229.22;5095066;28;20483;-71
2021/06/25 09:55:26;;;;;;;3.43;2.87;;;;;;;22.63;60.25;101234.19;5094818;28;20898;-71
2021/06/25 09:58:17;;;;;;;4.50;2.67;;;;;;;22.61;60.15;101229.03;5094904;28;20484;-71
2021/06/25 10:03:36;;;;;;;4.27;2.03;;;;;;;22.76;59.72;101234.81;5094623;28;20404;-71
2021/06/25 10:06:07;;;;;;;4.50;2.43;;;;;;;22.87;58.67;101228.31;5094470;28;20944;-71
2021/06/25 10:08:35;;;;;;;2.33;2.07;;;;;;;22.84;57.13;101234.59;5094662;28;20432;-71
2021/06/25 10:11:04;;;;;;;2.97;2.13;;;;;;;22.95;56.84;101226.50;5094266;28;20448;-71
2021/06/25 10:13:33;;;;;;;2.03;1.60;;;;;;;23.07;57.84;101233.78;5094537;28;20448;-71
2021/06/25 10:16:00;;;;;;;3.23;2.17;;;;;;;23.25;59.42;101223.81;5094549;28;20472;-71
2021/06/25 10:18:29;;;;;;;2.43;2.03;;;;;;;23.46;59.42;101228.03;5094162;28;20515;-71
2021/06/25 10:20:57;;;;;;;2.23;1.60;;;;;;;23.56;56.24;101222.69;5094495;28;20455;-71
2021/06/25 10:23:25;;;;;;;7.17;2.37;;;;;;;23.52;55.32;101229.34;5094213;28;20962;-71
2021/06/25 10:25:53;;;;;;;3.33;2.83;;;;;;;23.21;54.41;101231.25;5094200;28;20436;-71
2021/06/25 10:28:21;;;;;;;2.10;1.90;;;;;;;23.10;56.34;101238.56;5094458;28;20444;-71
2021/06/25 10:30:47;;;;;;;3.90;1.90;;;;;;;23.12;57.10;101241.78;5094362;28;20463;-71
2021/06/25 10:33:14;;;;;;;3.50;2.07;;;;;;;23.24;57.42;101232.47;5086027;28;20458;-72
2021/06/25 10:35:42;;;;;;;3.20;1.80;;;;;;;23.42;53.81;101237.09;5073665;28;20453;-72
2021/06/25 10:38:09;;;;;;;3.27;2.07;;;;;;;23.65;54.05;101239.03;5073976;28;20482;-72
2021/06/25 10:40:35;;;;;;;3.40;2.07;;;;;;;23.76;52.47;101237.19;5074003;28;20449;-71
2021/06/25 10:43:03;;;;;;;2.63;1.90;;;;;;;23.84;51.41;101233.34;5073892;28;20465;-72
2021/06/25 10:45:41;;;;;;;3.90;2.43;;;;;;;24.02;51.70;101233.56;5073903;28;20481;-71
2021/06/25 10:48:08;;;;;;;3.80;2.00;;;;;;;23.99;50.52;101230.75;5073843;28;20813;-71
2021/06/25 10:50:35;;;;;;;3.23;1.83;;;;;;;23.98;50.86;101232.72;5073784;28;20540;-72
2021/06/25 10:53:10;;;;;;;2.30;1.50;;;;;;;24.06;52.20;101233.63;5073683;28;20469;-71
2021/06/25 10:55:44;;;;;;;2.13;1.60;;;;;;;24.01;51.07;101228.44;5073724;28;20522;-71
2021/06/25 10:58:20;;;;;;;3.00;1.97;;;;;;;24.18;53.61;101236.16;5073562;28;20468;-73
2021/06/25 11:00:55;;;;;;;1.50;1.40;;;;;;;24.24;53.23;101234.63;5073647;28;20433;-73
2021/06/25 11:03:41;;;;;;;2.50;1.57;;;;;;;24.04;50.77;101230.41;5073377;28;20933;-71
2021/06/25 11:06:10;;;;;;;3.57;2.00;;;;;;;24.14;50.88;101235.31;5073600;28;20426;-69
2021/06/25 11:08:57;;;;;;;1.47;1.37;;;;;;;24.28;51.71;101224.38;5073279;28;20954;-72
2021/06/25 11:11:28;;;;;;;2.10;1.83;;;;;;;24.46;48.56;101232.13;5073041;28;20487;-69
2021/06/25 11:13:54;;;;;;;1.87;1.47;;;;;;;24.35;48.33;101224.47;5073552;28;20425;-69
2021/06/25 11:16:22;;;;;;;2.43;2.00;;;;;;;24.56;49.54;101226.66;5073083;28;20939;-69
2021/06/25 11:18:49;;;;;;;3.00;1.50;;;;;;;24.91;49.77;101219.84;5073370;28;20484;-69
2021/06/25 11:21:16;;;;;;;1.67;1.50;;;;;;;25.44;48.43;101230.56;5073351;28;20469;-69
2021/06/25 11:23:44;;;;;;;1.90;1.70;;;;;;;25.70;46.52;101226.75;5073326;28;20437;-69
2021/06/25 11:26:23;;;;;;;2.03;1.53;;;;;;;26.08;46.44;101227.34;5072939;28;20536;-69
2021/06/25 11:28:51;;;;;;;2.43;1.97;;;;;;;26.47;44.67;101232.22;5073397;28;20417;-70
2021/06/25 11:31:24;;;;;;;1.80;1.70;;;;;;;26.70;44.46;101232.66;5072797;28;20993;-72
2021/06/25 11:33:55;;;;;;;3.43;1.90;;;;;;;26.59;45.06;101223.50;5072934;28;20801;-73
2021/06/25 11:36:31;;;;;;;1.70;1.50;;;;;;;26.45;44.90;101218.72;5073174;28;20440;-74
2021/06/25 11:39:29;;;;;;;3.20;1.87;;;;;;;27.16;45.14;101220.75;5072941;28;20472;-71